Aeroporto :
LOGIN :

Iscrizione | Disclaimer

   EN    FR    IT 

 










Sommario :    VFR   VFR Marginale   IFR   IFR Intensivo   IFR Molto Intensivo
Visibilità : 
Base nubi : 
>= 8 km
>= 3000ft
5 / 8 km
1000 / 3000 ft
1500m / 5 km
500 / 1000 ft
800 / 1500m
200 / 500 ft
< 800m
< 200 ft
Simboli :   Temporali  Nebbia  Neve Forte  Precipitazioni Forti  Vento > 20 kt
SIGMETs :   Varie  Temporali  Ghiacco  Turbolenza  Onda orograficha  Ceneri Vulcaniche






- Altitudine del aeroporto : 616 ft
- Codice IATA : PUF


LFBP - Pau

ULTIMO METAR :
  • 150700Z AUTO 19007KT 160V220 9999 -RA OVC032/// ///CB 06/04 Q0997 BECMG BKN050

METARs OBSOLETI :
  • 150630Z AUTO 19007KT 150V230 9999 -RA FEW032/// BKN041/// OVC048/// ///TCU 05/04 Q0997 BECMG BKN050
  • 150600Z AUTO 12003KT 080V140 9999 -RA BKN038/// BKN047/// OVC056/// ///TCU 05/04 Q0997 BECMG BKN050
  • 150530Z AUTO 12003KT 9999 -RA SCT044 BKN054 OVC068 05/04 Q0997 TEMPO 4000 SHRA SCT005 BKN013
  • 150500Z AUTO VRB02KT 9999 FEW054 BKN066 BKN086 05/04 Q0997 TEMPO 4000 SHRA SCT005 BKN013
  • 150430Z AUTO VRB02KT 9999 -RA FEW041 SCT060 BKN130 04/04 Q0998 TEMPO 4000 SHRA SCT005 BKN013

TAF TAF LFBP
Valido dal 15 a 06 ore il 16 a 06 ore UTC


150500Z 1506/1606 VRB03KT 9999 BKN050
TEMPO 1510/1518 4000 SHRA BKN004 BKN015TCU
BECMG 1520/1522 21005KT
PROB30
TEMPO 1604/1606 3000 -SHRA BKN030



MetMap, La meteo Aeronautica in un colpo d'occhio ! - Copyright ORBIFLY Dicembre 2007 - Disclaimer

ORBIFLY MET'MAP TEAM :

Programmazione e sviluppo : Alexandra Zaïnal
Concezione e sviluppo : Baudouin d'Aumeries
Co-Programmazione e sviluppo : Marc-Olivier Méhu
Supporto tecnico e logistico : Manuel Goepfert
Aiuto per la traduzione : Arnaldo La Scala

Contatto : metmap@orbifly.com




FONTI E CREDITI :

   NOAA